createdAt,value
2017-09-12T00:00:30.806Z,0
2017-09-12T00:01:41.069Z,0
2017-09-12T00:02:51.316Z,0
2017-09-12T00:04:00.937Z,0
2017-09-12T00:05:11.450Z,0
2017-09-12T00:06:21.399Z,0
2017-09-12T00:07:31.340Z,0
2017-09-12T00:08:41.268Z,0
2017-09-12T00:09:51.521Z,0
2017-09-12T00:11:01.712Z,0
2017-09-12T00:12:11.653Z,0
2017-09-12T00:13:21.590Z,0
2017-09-12T00:14:31.847Z,0
2017-09-12T00:15:41.772Z,0
2017-09-12T00:16:52.265Z,0
2017-09-12T00:18:02.533Z,0
2017-09-12T00:19:12.159Z,0
2017-09-12T00:20:22.089Z,0
2017-09-12T00:21:32.347Z,0
2017-09-12T00:22:42.585Z,0
2017-09-12T00:23:52.828Z,0
2017-09-12T00:25:03.088Z,0
2017-09-12T00:26:13.333Z,0
2017-09-12T00:27:23.582Z,0
2017-09-12T00:28:34.092Z,0
2017-09-12T00:29:44.344Z,0
2017-09-12T00:30:54.598Z,0
2017-09-12T00:32:04.862Z,0
2017-09-12T00:33:15.116Z,0
2017-09-12T00:34:24.978Z,0
2017-09-12T00:35:34.925Z,0
2017-09-12T00:36:44.861Z,0
2017-09-12T00:37:55.105Z,0
2017-09-12T00:39:05.355Z,0
2017-09-12T00:40:15.543Z,0
2017-09-12T00:41:25.480Z,0
2017-09-12T00:42:35.728Z,0
2017-09-12T00:43:45.362Z,0
2017-09-12T00:44:55.299Z,0
2017-09-12T00:46:05.801Z,0
2017-09-12T00:47:16.048Z,0
2017-09-12T00:48:25.669Z,0
2017-09-12T00:49:35.935Z,0
2017-09-12T00:50:46.185Z,0
2017-09-12T00:51:56.682Z,0
2017-09-12T00:53:06.935Z,0
2017-09-12T00:54:16.880Z,0
2017-09-12T00:55:26.499Z,0
2017-09-12T00:56:36.433Z,0
2017-09-12T00:57:46.651Z,0
2017-09-12T00:58:56.914Z,0
2017-09-12T01:00:06.540Z,0
2017-09-12T01:01:16.797Z,0
2017-09-12T01:02:27.036Z,0
2017-09-12T01:03:37.537Z,0
2017-09-12T01:04:47.792Z,0
2017-09-12T01:05:57.408Z,0
2017-09-12T01:07:07.352Z,0
2017-09-12T01:08:17.298Z,0
2017-09-12T01:09:27.803Z,0
2017-09-12T01:10:38.046Z,0
2017-09-12T01:11:47.990Z,0
2017-09-12T01:12:58.247Z,0
2017-09-12T01:14:08.509Z,0
2017-09-12T01:15:18.692Z,0
2017-09-12T01:16:28.618Z,0
2017-09-12T01:17:38.865Z,0
2017-09-12T01:18:48.479Z,0
2017-09-12T01:19:58.444Z,0
2017-09-12T01:21:08.625Z,0
2017-09-12T01:22:18.874Z,0
2017-09-12T01:23:29.115Z,0
2017-09-12T01:24:39.050Z,0
2017-09-12T01:25:49.293Z,0
2017-09-12T01:26:59.478Z,0
2017-09-12T01:28:09.723Z,0
2017-09-12T01:29:19.669Z,0
2017-09-12T01:30:29.916Z,0
2017-09-12T01:31:40.172Z,0
2017-09-12T01:32:50.349Z,0
2017-09-12T01:34:00.594Z,0
2017-09-12T01:35:10.879Z,0
2017-09-12T01:36:21.133Z,0
2017-09-12T01:37:31.377Z,0
2017-09-12T01:38:41.878Z,0
2017-09-12T01:39:52.120Z,0
2017-09-12T01:41:02.055Z,0
2017-09-12T01:42:11.993Z,0
2017-09-12T01:43:22.250Z,0
2017-09-12T01:44:32.755Z,0
2017-09-12T01:45:43.004Z,0
2017-09-12T01:46:52.944Z,0
2017-09-12T01:48:03.196Z,0
2017-09-12T01:49:12.508Z,0
2017-09-12T01:50:23.010Z,0
2017-09-12T01:51:33.260Z,0
2017-09-12T01:52:42.895Z,0
2017-09-12T01:53:53.168Z,0
2017-09-12T01:55:03.413Z,0
2017-09-12T01:58:27.088Z,0
2017-09-12T01:59:36.706Z,0
2017-09-12T02:00:46.955Z,0
2017-09-12T02:01:57.461Z,0
2017-09-12T02:03:07.406Z,0
2017-09-12T02:04:17.654Z,0
2017-09-12T02:05:27.898Z,0
2017-09-12T02:06:38.149Z,0
2017-09-12T02:07:48.652Z,0
2017-09-12T02:08:58.274Z,0
2017-09-12T02:10:08.525Z,0
2017-09-12T02:11:18.767Z,0
2017-09-12T02:12:28.698Z,0
2017-09-12T02:13:39.200Z,0
2017-09-12T02:14:49.125Z,0
2017-09-12T02:15:58.745Z,0
2017-09-12T02:17:08.694Z,0
2017-09-12T02:18:18.641Z,0
2017-09-12T02:19:28.826Z,0
2017-09-12T02:20:38.768Z,0
2017-09-12T02:21:48.700Z,0
2017-09-12T02:22:58.009Z,0
2017-09-12T02:24:07.314Z,0
2017-09-12T02:25:17.493Z,0
2017-09-12T02:26:27.743Z,0
2017-09-12T02:27:37.993Z,0
2017-09-12T02:28:47.940Z,0
2017-09-12T02:29:58.186Z,0
2017-09-12T02:31:08.373Z,0
2017-09-12T02:32:18.369Z,0
2017-09-12T02:33:28.621Z,0
2017-09-12T02:34:38.889Z,0
2017-09-12T02:35:48.838Z,0
2017-09-12T02:36:59.339Z,0
2017-09-12T02:38:09.590Z,0
2017-09-12T02:39:19.866Z,0
2017-09-12T02:40:30.116Z,0
2017-09-12T02:41:40.369Z,0
2017-09-12T02:42:50.550Z,0
2017-09-12T02:44:00.499Z,0
2017-09-12T02:45:10.758Z,0
2017-09-12T02:46:21.007Z,0
2017-09-12T02:47:31.274Z,0
2017-09-12T02:48:41.783Z,0
2017-09-12T02:49:52.047Z,0
2017-09-12T02:51:02.295Z,0
2017-09-12T02:52:11.917Z,0
2017-09-12T02:53:21.866Z,0
2017-09-12T02:54:32.369Z,0
2017-09-12T02:55:42.002Z,0
2017-09-12T02:56:52.263Z,0
2017-09-12T02:58:02.526Z,0
2017-09-12T02:59:12.782Z,0
2017-09-12T03:00:22.976Z,0
2017-09-12T03:01:33.223Z,0
2017-09-12T03:02:43.467Z,0
2017-09-12T03:03:53.399Z,0
2017-09-12T03:05:03.653Z,0
2017-09-12T03:06:13.569Z,0
2017-09-12T03:07:23.809Z,0
2017-09-12T03:08:33.118Z,0
2017-09-12T03:09:42.743Z,0
2017-09-12T03:10:52.992Z,0
2017-09-12T03:12:03.166Z,0
2017-09-12T03:13:13.111Z,0
2017-09-12T03:14:23.369Z,0
2017-09-12T03:15:32.987Z,0
2017-09-12T03:16:43.239Z,0
2017-09-12T03:17:53.788Z,0
2017-09-12T03:19:03.727Z,0
2017-09-12T03:20:13.654Z,0
2017-09-12T03:21:23.918Z,0
2017-09-12T03:22:34.174Z,0
2017-09-12T03:23:44.361Z,0
2017-09-12T03:24:54.620Z,0
2017-09-12T03:26:04.871Z,0
2017-09-12T03:27:15.112Z,0
2017-09-12T03:28:25.359Z,0
2017-09-12T03:29:35.538Z,0
2017-09-12T03:30:45.496Z,0
2017-09-12T03:31:55.764Z,0
2017-09-12T03:33:06.016Z,0
2017-09-12T03:34:16.266Z,0
2017-09-12T03:35:26.447Z,0
2017-09-12T03:36:36.390Z,0
2017-09-12T03:37:46.652Z,0
2017-09-12T03:38:56.911Z,0
2017-09-12T03:40:06.854Z,0
2017-09-12T03:41:16.731Z,0
2017-09-12T03:42:26.682Z,0
2017-09-12T03:43:36.939Z,0
2017-09-12T03:44:47.183Z,0
2017-09-12T03:45:57.435Z,0
2017-09-12T03:47:07.927Z,0
2017-09-12T03:48:18.195Z,0
2017-09-12T03:49:28.465Z,0
2017-09-12T03:50:38.737Z,0
2017-09-12T03:51:48.664Z,0
2017-09-12T03:52:58.857Z,0
2017-09-12T03:54:09.111Z,0
2017-09-12T03:55:18.728Z,0
2017-09-12T03:56:28.982Z,0
2017-09-12T03:57:39.225Z,0
2017-09-12T03:58:49.401Z,0
2017-09-12T03:59:59.648Z,0
2017-09-12T04:01:09.262Z,0
2017-09-12T04:02:19.190Z,0
2017-09-12T04:03:29.149Z,0
2017-09-12T04:04:39.643Z,0
2017-09-12T04:05:49.894Z,0
2017-09-12T04:07:00.138Z,0
2017-09-12T04:08:10.383Z,0
2017-09-12T04:09:20.313Z,0
2017-09-12T04:10:30.820Z,0
2017-09-12T04:11:40.441Z,0
2017-09-12T04:12:50.690Z,0
2017-09-12T04:14:00.957Z,0
2017-09-12T04:15:11.212Z,0
2017-09-12T04:16:21.713Z,0
2017-09-12T04:17:31.653Z,0
2017-09-12T04:18:41.909Z,0
2017-09-12T04:19:52.157Z,0
2017-09-12T04:21:02.411Z,0
2017-09-12T04:22:12.908Z,0
2017-09-12T04:23:22.851Z,0
2017-09-12T04:24:33.095Z,0
2017-09-12T04:25:42.719Z,0
2017-09-12T04:26:52.973Z,0
2017-09-12T04:28:03.475Z,5
2017-09-12T04:29:13.729Z,5
2017-09-12T04:30:23.974Z,5
2017-09-12T04:31:33.608Z,5
2017-09-12T04:32:43.876Z,10
2017-09-12T04:33:54.377Z,10
2017-09-12T04:35:04.319Z,10
2017-09-12T04:36:13.933Z,15
2017-09-12T04:37:24.187Z,15
2017-09-12T04:38:34.124Z,20
2017-09-12T04:39:44.323Z,20
2017-09-12T04:40:54.573Z,25
2017-09-12T04:42:04.828Z,25
2017-09-12T04:43:15.075Z,30
2017-09-12T04:44:25.324Z,30
2017-09-12T04:45:35.555Z,35
2017-09-12T04:46:45.508Z,35
2017-09-12T04:47:55.749Z,40
2017-09-12T04:49:05.356Z,40
2017-09-12T04:50:15.289Z,45
2017-09-12T04:51:25.157Z,45
2017-09-12T04:52:35.410Z,50
2017-09-12T04:53:45.349Z,50
2017-09-12T04:54:55.607Z,55
2017-09-12T04:56:05.531Z,60
2017-09-12T04:57:15.724Z,60
2017-09-12T04:58:25.965Z,65
2017-09-12T04:59:35.935Z,65
2017-09-12T05:00:46.184Z,70
2017-09-12T05:01:56.474Z,70
2017-09-12T05:03:06.982Z,75
2017-09-12T05:04:17.256Z,80
2017-09-12T05:05:26.878Z,85
2017-09-12T05:06:36.187Z,85
2017-09-12T05:07:45.815Z,85
2017-09-12T05:08:56.324Z,90
2017-09-12T05:10:06.585Z,90
2017-09-12T05:11:16.833Z,90
2017-09-12T05:12:27.090Z,90
2017-09-12T05:13:37.348Z,90
2017-09-12T05:14:47.845Z,90
2017-09-12T05:15:58.110Z,95
2017-09-12T05:17:08.360Z,105
2017-09-12T05:18:18.617Z,110
2017-09-12T05:19:28.585Z,110
2017-09-12T05:20:39.094Z,115
2017-09-12T05:21:49.035Z,115
2017-09-12T05:22:59.302Z,115
2017-09-12T05:24:09.544Z,120
2017-09-12T05:25:19.790Z,120
2017-09-12T05:26:29.969Z,120
2017-09-12T05:27:40.243Z,120
2017-09-12T05:28:50.506Z,120
2017-09-12T05:30:00.759Z,125
2017-09-12T05:31:10.712Z,125
2017-09-12T05:32:20.899Z,125
2017-09-12T05:33:31.150Z,125
2017-09-12T05:34:41.402Z,125
2017-09-12T05:35:51.653Z,130
2017-09-12T05:37:01.914Z,130
2017-09-12T05:38:12.440Z,135
2017-09-12T05:39:22.703Z,135
2017-09-12T05:40:32.954Z,140
2017-09-12T05:41:42.900Z,145
2017-09-12T05:42:52.850Z,145
2017-09-12T05:44:03.357Z,150
2017-09-12T05:45:13.617Z,150
2017-09-12T05:46:23.560Z,155
2017-09-12T05:47:33.484Z,160
2017-09-12T05:48:43.426Z,165
2017-09-12T05:49:53.614Z,170
2017-09-12T05:51:02.914Z,170
2017-09-12T05:52:13.085Z,175
2017-09-12T05:53:23.345Z,185
2017-09-12T05:54:33.597Z,190
2017-09-12T05:55:43.471Z,195
2017-09-12T05:56:53.433Z,200
2017-09-12T05:58:03.389Z,200
2017-09-12T05:59:13.331Z,200
2017-09-12T06:00:23.583Z,210
2017-09-12T06:01:34.086Z,215
2017-09-12T06:02:44.347Z,215
2017-09-12T06:03:54.268Z,220
2017-09-12T06:05:04.559Z,225
2017-09-12T06:06:14.852Z,225
2017-09-12T06:07:25.410Z,230
2017-09-12T06:08:35.697Z,235
2017-09-12T06:09:45.992Z,235
2017-09-12T06:10:56.243Z,235
2017-09-12T06:12:06.492Z,235
2017-09-12T06:13:16.699Z,240
2017-09-12T06:14:26.976Z,235
2017-09-12T06:15:37.243Z,230
2017-09-12T06:16:47.175Z,240
2017-09-12T06:17:57.430Z,255
2017-09-12T06:19:07.957Z,260
2017-09-12T06:20:16.946Z,265
2017-09-12T06:21:27.214Z,265
2017-09-12T06:22:37.464Z,270
2017-09-12T06:23:47.727Z,275
2017-09-12T06:24:57.599Z,275
2017-09-12T06:26:07.848Z,285
2017-09-12T06:27:18.309Z,300
2017-09-12T06:28:28.557Z,285
2017-09-12T06:29:38.815Z,285
2017-09-12T06:30:48.691Z,285
2017-09-12T06:31:58.613Z,285
2017-09-12T06:33:08.575Z,290
2017-09-12T06:34:18.834Z,295
2017-09-12T06:35:28.456Z,300
2017-09-12T06:36:38.969Z,310
2017-09-12T06:37:48.918Z,315
2017-09-12T06:38:59.169Z,315
2017-09-12T06:40:09.429Z,315
2017-09-12T06:41:19.688Z,320
2017-09-12T06:42:30.201Z,320
2017-09-12T06:43:40.463Z,330
2017-09-12T06:44:50.767Z,335
2017-09-12T06:46:01.070Z,350
2017-09-12T06:47:11.388Z,365
2017-09-12T06:48:21.919Z,380
2017-09-12T06:49:31.895Z,380
2017-09-12T06:50:41.845Z,390
2017-09-12T06:51:52.144Z,395
2017-09-12T06:53:02.659Z,400
2017-09-12T06:54:13.204Z,400
2017-09-12T06:55:23.504Z,400
2017-09-12T06:56:33.452Z,390
2017-09-12T06:57:43.730Z,370
2017-09-12T06:58:54.014Z,355
2017-09-12T07:00:04.578Z,345
2017-09-12T07:01:14.920Z,340
2017-09-12T07:02:24.870Z,355
2017-09-12T07:03:35.125Z,385
2017-09-12T07:04:45.428Z,410
2017-09-12T07:05:55.955Z,425
2017-09-12T07:07:06.241Z,440
2017-09-12T07:08:16.765Z,450
2017-09-12T07:09:26.748Z,455
2017-09-12T07:10:37.026Z,470
2017-09-12T07:11:47.565Z,480
2017-09-12T07:12:57.841Z,495
2017-09-12T07:14:08.165Z,500
2017-09-12T07:15:18.463Z,485
2017-09-12T07:16:28.446Z,490
2017-09-12T07:17:38.957Z,495
2017-09-12T07:18:49.168Z,495
2017-09-12T07:19:59.199Z,490
2017-09-12T07:21:09.153Z,480
2017-09-12T07:22:19.432Z,475
2017-09-12T07:23:29.948Z,465
2017-09-12T07:24:40.250Z,465
2017-09-12T07:25:50.228Z,465
2017-09-12T07:27:00.171Z,495
2017-09-12T07:28:09.798Z,500
2017-09-12T07:29:20.317Z,540
2017-09-12T07:30:30.293Z,545
2017-09-12T07:31:40.546Z,500
2017-09-12T07:32:50.815Z,445
2017-09-12T07:34:01.063Z,415
2017-09-12T07:35:11.263Z,415
2017-09-12T07:36:21.526Z,425
2017-09-12T07:37:31.484Z,430
2017-09-12T07:38:41.735Z,425
2017-09-12T07:39:51.999Z,425
2017-09-12T07:41:02.524Z,440
2017-09-12T07:42:12.794Z,445
2017-09-12T07:43:23.071Z,450
2017-09-12T07:44:33.020Z,455
2017-09-12T07:45:43.292Z,460
2017-09-12T07:46:53.806Z,450
2017-09-12T07:48:04.072Z,420
2017-09-12T07:49:14.332Z,405
2017-09-12T07:50:24.588Z,400
2017-09-12T07:51:34.528Z,400
2017-09-12T07:52:45.040Z,410
2017-09-12T07:53:55.335Z,415
2017-09-12T07:55:05.290Z,420
2017-09-12T07:56:15.578Z,435
2017-09-12T07:57:25.841Z,455
2017-09-12T07:58:36.058Z,480
2017-09-12T07:59:46.003Z,510
2017-09-12T08:00:56.260Z,530
2017-09-12T08:02:06.536Z,535
2017-09-12T08:03:16.505Z,540
2017-09-12T08:04:26.720Z,550
2017-09-12T08:05:36.995Z,545
2017-09-12T08:06:47.273Z,535
2017-09-12T08:07:57.536Z,530
2017-09-12T08:09:07.798Z,530
2017-09-12T08:10:18.020Z,545
2017-09-12T08:11:27.986Z,560
2017-09-12T08:12:37.930Z,570
2017-09-12T08:13:48.215Z,590
2017-09-12T08:14:58.475Z,595
2017-09-12T08:16:08.987Z,610
2017-09-12T08:17:18.965Z,620
2017-09-12T08:18:29.252Z,625
2017-09-12T08:19:39.577Z,635
2017-09-12T08:20:49.227Z,630
2017-09-12T08:21:59.436Z,610
2017-09-12T08:23:09.699Z,600
2017-09-12T08:24:19.976Z,580
2017-09-12T08:25:29.913Z,575
2017-09-12T08:26:40.176Z,590
2017-09-12T08:27:50.380Z,615
2017-09-12T08:29:00.664Z,630
2017-09-12T08:30:10.635Z,645
2017-09-12T08:31:20.913Z,660
2017-09-12T08:32:31.178Z,675
2017-09-12T08:33:41.762Z,705
2017-09-12T08:34:51.708Z,740
2017-09-12T08:36:01.961Z,790
2017-09-12T08:37:12.223Z,855
2017-09-12T08:38:22.483Z,885
2017-09-12T08:39:32.371Z,925
2017-09-12T08:40:42.637Z,980
2017-09-12T08:41:52.913Z,1075
2017-09-12T08:43:02.859Z,1250
2017-09-12T08:44:13.126Z,1475
2017-09-12T08:45:23.661Z,1155
2017-09-12T08:46:33.929Z,1255
2017-09-12T08:47:44.192Z,925
2017-09-12T08:48:54.456Z,1305
2017-09-12T08:50:04.737Z,1350
2017-09-12T08:51:14.907Z,1230
2017-09-12T08:52:24.848Z,885
2017-09-12T08:53:34.789Z,1720
2017-09-12T08:54:45.051Z,1400
2017-09-12T08:55:55.344Z,1020
2017-09-12T08:57:05.926Z,1305
2017-09-12T08:58:15.872Z,990
2017-09-12T08:59:26.132Z,925
2017-09-12T09:00:35.760Z,980
2017-09-12T09:01:45.713Z,1045
2017-09-12T09:02:55.903Z,1110
2017-09-12T09:04:05.496Z,1160
2017-09-12T09:05:15.437Z,1175
2017-09-12T09:06:25.376Z,1145
2017-09-12T09:07:35.351Z,1075
2017-09-12T09:08:45.892Z,1130
2017-09-12T09:09:56.159Z,1120
2017-09-12T09:11:06.115Z,1275
2017-09-12T09:12:16.380Z,1255
2017-09-12T09:13:26.329Z,1265
2017-09-12T09:14:36.537Z,1270
2017-09-12T09:15:46.805Z,1150
2017-09-12T09:16:57.062Z,1075
2017-09-12T09:18:07.328Z,1035
2017-09-12T09:19:17.592Z,995
2017-09-12T09:20:28.112Z,950
2017-09-12T09:21:38.067Z,915
2017-09-12T09:22:48.320Z,840
2017-09-12T09:23:58.266Z,785
2017-09-12T09:25:08.530Z,800
2017-09-12T09:26:19.039Z,820
2017-09-12T09:27:29.016Z,835
2017-09-12T09:28:39.380Z,810
2017-09-12T09:29:49.342Z,785
2017-09-12T09:30:59.599Z,780
2017-09-12T09:32:10.115Z,800
2017-09-12T09:33:20.397Z,835
2017-09-12T09:34:30.426Z,940
2017-09-12T09:35:40.718Z,990
2017-09-12T09:36:50.673Z,960
2017-09-12T09:38:00.924Z,1050
2017-09-12T09:39:11.208Z,1025
2017-09-12T09:40:21.463Z,900
2017-09-12T09:41:31.723Z,1505
2017-09-12T09:42:42.005Z,1460
2017-09-12T09:43:52.762Z,1020
2017-09-12T09:45:03.071Z,1785
2017-09-12T09:46:13.051Z,1755
2017-09-12T09:47:23.348Z,1520
2017-09-12T09:48:33.614Z,1250
2017-09-12T09:49:44.154Z,1465
2017-09-12T09:50:54.457Z,1630
2017-09-12T09:52:04.746Z,1645
2017-09-12T09:53:15.030Z,1565
2017-09-12T09:54:25.322Z,1580
2017-09-12T09:55:35.526Z,1730
2017-09-12T09:56:45.789Z,910
2017-09-12T09:57:55.418Z,2315
2017-09-12T09:59:05.383Z,1650
2017-09-12T10:00:15.647Z,1790
2017-09-12T10:01:25.845Z,2390
2017-09-12T10:02:36.119Z,2410
2017-09-12T10:03:46.075Z,2500
2017-09-12T10:04:56.355Z,2490
2017-09-12T10:06:06.633Z,2320
2017-09-12T10:07:17.147Z,2330
2017-09-12T10:08:27.090Z,2320
2017-09-12T10:09:37.372Z,2200
2017-09-12T10:10:47.646Z,2125
2017-09-12T10:11:57.956Z,2630
2017-09-12T10:13:08.487Z,2430
2017-09-12T10:14:18.439Z,1975
2017-09-12T10:15:28.705Z,2240
2017-09-12T10:16:38.644Z,1960
2017-09-12T10:17:48.952Z,1780
2017-09-12T10:18:59.133Z,1440
2017-09-12T10:20:09.447Z,1390
2017-09-12T10:21:19.087Z,1775
2017-09-12T10:22:29.363Z,1715
2017-09-12T10:23:39.628Z,1390
2017-09-12T10:24:50.131Z,1365
2017-09-12T10:26:00.401Z,1660
2017-09-12T10:27:10.374Z,1415
2017-09-12T10:28:20.089Z,1160
2017-09-12T10:29:30.362Z,1085
2017-09-12T10:30:40.897Z,1000
2017-09-12T10:31:50.904Z,985
2017-09-12T10:33:01.208Z,1025
2017-09-12T10:34:11.512Z,980
2017-09-12T10:35:21.483Z,1125
2017-09-12T10:36:32.064Z,1355
2017-09-12T10:37:42.268Z,1350
2017-09-12T10:38:52.547Z,1085
2017-09-12T10:40:02.504Z,800
2017-09-12T10:41:12.454Z,820
2017-09-12T10:42:22.982Z,965
2017-09-12T10:43:33.287Z,1045
2017-09-12T10:44:42.607Z,1100
2017-09-12T10:45:52.560Z,1145
2017-09-12T10:47:02.841Z,1190
2017-09-12T10:48:13.425Z,1210
2017-09-12T10:49:23.769Z,1095
2017-09-12T10:50:34.035Z,1225
2017-09-12T10:51:44.334Z,1325
2017-09-12T10:52:54.601Z,1265
2017-09-12T10:54:04.856Z,1780
2017-09-12T10:55:15.186Z,1380
2017-09-12T10:56:25.465Z,1435
2017-09-12T10:57:35.417Z,1885
2017-09-12T10:58:45.666Z,1715
2017-09-12T10:59:56.216Z,1915
2017-09-12T11:01:06.483Z,1115
2017-09-12T11:02:16.743Z,1020
2017-09-12T11:03:27.026Z,1410
2017-09-12T11:04:37.315Z,2240
2017-09-12T11:05:47.872Z,1945
2017-09-12T11:06:58.158Z,1140
2017-09-12T11:08:08.437Z,1280
2017-09-12T11:09:18.698Z,2050
2017-09-12T11:10:28.980Z,2555
2017-09-12T11:11:39.537Z,1075
2017-09-12T11:12:49.887Z,1120
2017-09-12T11:13:59.901Z,1340
2017-09-12T11:15:09.886Z,1280
2017-09-12T11:16:19.816Z,2265
2017-09-12T11:17:30.342Z,3270
2017-09-12T11:18:40.331Z,1175
2017-09-12T11:19:50.627Z,1075
2017-09-12T11:21:00.298Z,1380
2017-09-12T11:22:10.575Z,975
2017-09-12T11:23:21.089Z,3195
2017-09-12T11:24:31.363Z,1190
2017-09-12T11:25:41.644Z,1030
2017-09-12T11:26:51.591Z,2490
2017-09-12T11:28:01.216Z,1040
2017-09-12T11:29:11.094Z,910
2017-09-12T11:30:21.370Z,920
2017-09-12T11:31:31.681Z,900
2017-09-12T11:32:41.638Z,1090
2017-09-12T11:33:51.912Z,2065
2017-09-12T11:35:02.105Z,2940
2017-09-12T11:36:12.388Z,1445
2017-09-12T11:37:22.349Z,3105
2017-09-12T11:38:32.617Z,690
2017-09-12T11:39:42.880Z,515
2017-09-12T11:40:53.516Z,465
2017-09-12T11:42:03.772Z,460
2017-09-12T11:43:14.035Z,450
2017-09-12T11:44:24.306Z,495
2017-09-12T11:45:34.268Z,515
2017-09-12T11:46:44.775Z,655
2017-09-12T11:47:54.735Z,1030
2017-09-12T11:49:04.744Z,550
2017-09-12T11:50:15.024Z,500
2017-09-12T11:51:24.984Z,495
2017-09-12T11:52:35.535Z,530
2017-09-12T11:53:45.815Z,595
2017-09-12T11:54:55.764Z,665
2017-09-12T11:56:06.048Z,750
2017-09-12T11:57:16.344Z,770
2017-09-12T11:58:26.225Z,700
2017-09-12T11:59:36.188Z,665
2017-09-12T12:00:46.129Z,670
2017-09-12T12:01:56.387Z,950
2017-09-12T12:03:06.644Z,615
2017-09-12T12:04:17.171Z,590
2017-09-12T12:05:27.154Z,610
2017-09-12T12:06:37.436Z,675
2017-09-12T12:07:47.712Z,785
2017-09-12T12:08:58.233Z,835
2017-09-12T12:10:08.732Z,880
2017-09-12T12:11:18.674Z,990
2017-09-12T12:12:28.961Z,1105
2017-09-12T12:13:39.246Z,1195
2017-09-12T12:14:48.890Z,1250
2017-09-12T12:15:59.430Z,1305
2017-09-12T12:17:09.715Z,1450
2017-09-12T12:18:19.992Z,1955
2017-09-12T12:19:30.292Z,1235
2017-09-12T12:20:40.264Z,1050
2017-09-12T12:21:50.305Z,1215
2017-09-12T12:23:00.588Z,3340
2017-09-12T12:24:10.856Z,715
2017-09-12T12:25:21.142Z,655
2017-09-12T12:26:31.455Z,720
2017-09-12T12:27:42.143Z,795
2017-09-12T12:28:52.440Z,980
2017-09-12T12:30:02.728Z,3630
2017-09-12T12:31:12.999Z,3915
2017-09-12T12:32:23.307Z,2155
2017-09-12T12:33:33.305Z,2115
2017-09-12T12:34:43.818Z,1400
2017-09-12T12:35:54.134Z,1100
2017-09-12T12:37:04.395Z,1060
2017-09-12T12:38:14.766Z,825
2017-09-12T12:39:25.329Z,765
2017-09-12T12:40:35.592Z,690
2017-09-12T12:41:45.853Z,575
2017-09-12T12:42:56.126Z,525
2017-09-12T12:44:06.402Z,480
2017-09-12T12:45:17.053Z,460
2017-09-12T12:46:27.339Z,455
2017-09-12T12:47:37.598Z,450
2017-09-12T12:48:47.564Z,485
2017-09-12T12:49:57.837Z,475
2017-09-12T12:51:08.397Z,450
2017-09-12T12:52:18.662Z,415
2017-09-12T12:53:28.937Z,405
2017-09-12T12:54:39.210Z,395
2017-09-12T12:55:49.478Z,400
2017-09-12T12:56:59.776Z,430
2017-09-12T12:58:09.718Z,485
2017-09-12T12:59:20.201Z,470
2017-09-12T13:00:29.830Z,515
2017-09-12T13:01:39.772Z,530
2017-09-12T13:02:50.341Z,560
2017-09-12T13:04:00.611Z,535
2017-09-12T13:05:10.870Z,520
2017-09-12T13:06:21.141Z,545
2017-09-12T13:07:31.131Z,570
2017-09-12T13:08:41.749Z,595
2017-09-12T13:09:51.688Z,575
2017-09-12T13:11:01.942Z,535
2017-09-12T13:12:11.569Z,500
2017-09-12T13:13:21.544Z,445
2017-09-12T13:14:31.843Z,400
2017-09-12T13:15:41.778Z,365
2017-09-12T13:16:52.034Z,330
2017-09-12T13:18:01.978Z,305
2017-09-12T13:19:11.618Z,290
2017-09-12T13:20:21.890Z,285
2017-09-12T13:21:31.888Z,285
2017-09-12T13:22:41.884Z,295
2017-09-12T13:23:51.825Z,310
2017-09-12T13:25:01.761Z,335
2017-09-12T13:26:12.078Z,360
2017-09-12T13:27:22.041Z,390
2017-09-12T13:28:32.307Z,390
2017-09-12T13:29:42.288Z,355
2017-09-12T13:30:52.545Z,305
2017-09-12T13:32:02.847Z,260
2017-09-12T13:33:13.104Z,230
2017-09-12T13:34:23.374Z,215
2017-09-12T13:35:33.634Z,190
2017-09-12T13:36:42.952Z,170
2017-09-12T13:37:52.946Z,160
2017-09-12T13:39:02.897Z,165
2017-09-12T13:40:12.545Z,185
2017-09-12T13:41:22.840Z,215
2017-09-12T13:42:33.118Z,260
2017-09-12T13:43:43.108Z,335
2017-09-12T13:44:53.390Z,425
2017-09-12T13:46:03.338Z,545
2017-09-12T13:47:13.636Z,720
2017-09-12T13:48:23.907Z,1860
2017-09-12T13:49:34.195Z,1015
2017-09-12T13:50:44.476Z,1110
2017-09-12T13:51:54.427Z,1140
2017-09-12T13:53:04.376Z,1190
2017-09-12T13:54:14.317Z,1390
2017-09-12T13:55:24.930Z,3380
2017-09-12T13:56:34.875Z,3125
2017-09-12T13:57:45.138Z,3280
2017-09-12T13:58:55.130Z,3245
2017-09-12T14:00:05.386Z,3205
2017-09-12T14:01:15.935Z,3135
2017-09-12T14:02:26.212Z,3065
2017-09-12T14:03:36.481Z,3040
2017-09-12T14:04:46.730Z,3055
2017-09-12T14:05:56.687Z,3035
2017-09-12T14:07:06.622Z,3020
2017-09-12T14:08:16.565Z,3015
2017-09-12T14:09:26.513Z,3030
2017-09-12T14:10:36.145Z,2985
2017-09-12T14:11:46.082Z,2805
2017-09-12T14:12:56.386Z,2635
2017-09-12T14:14:06.013Z,2720
2017-09-12T14:15:16.273Z,2000
2017-09-12T14:16:26.562Z,2930
2017-09-12T14:17:36.516Z,2820
2017-09-12T14:18:47.134Z,2865
2017-09-12T14:19:57.377Z,2795
2017-09-12T14:21:07.652Z,2905
2017-09-12T14:22:17.581Z,2870
2017-09-12T14:23:27.496Z,2940
2017-09-12T14:24:37.779Z,2880
2017-09-12T14:25:48.035Z,2880
2017-09-12T14:26:58.280Z,970
2017-09-12T14:28:08.555Z,2855
2017-09-12T14:29:18.496Z,1085
2017-09-12T14:30:28.734Z,820
2017-09-12T14:31:38.701Z,905
2017-09-12T14:32:49.002Z,2770
2017-09-12T14:33:59.265Z,2885
2017-09-12T14:35:09.199Z,2830
2017-09-12T14:36:19.424Z,2805
2017-09-12T14:37:29.379Z,2725
2017-09-12T14:38:39.650Z,1025
2017-09-12T14:39:49.591Z,2815
2017-09-12T14:40:59.899Z,2825
2017-09-12T14:42:10.143Z,2770
2017-09-12T14:43:20.388Z,2490
2017-09-12T14:44:30.646Z,765
2017-09-12T14:45:40.924Z,685
2017-09-12T14:46:50.869Z,625
2017-09-12T14:48:01.488Z,515
2017-09-12T14:49:11.429Z,445
2017-09-12T14:50:21.683Z,425
2017-09-12T14:51:31.934Z,415
2017-09-12T14:52:41.882Z,445
2017-09-12T14:53:52.442Z,540
2017-09-12T14:55:02.708Z,1135
2017-09-12T14:56:12.652Z,490
2017-09-12T14:57:22.903Z,450
2017-09-12T14:58:32.852Z,405
2017-09-12T14:59:43.151Z,360
2017-09-12T15:00:53.411Z,330
2017-09-12T15:02:03.694Z,315
2017-09-12T15:03:13.960Z,315
2017-09-12T15:04:23.909Z,315
2017-09-12T15:05:34.482Z,265
2017-09-12T15:06:44.878Z,240
2017-09-12T15:07:55.136Z,230
2017-09-12T15:09:05.071Z,230
2017-09-12T15:10:15.012Z,225
2017-09-12T15:11:25.248Z,220
2017-09-12T15:12:35.189Z,230
2017-09-12T15:13:45.513Z,240
2017-09-12T15:14:55.812Z,230
2017-09-12T15:16:05.773Z,215
2017-09-12T15:17:16.404Z,205
2017-09-12T15:18:26.688Z,200
2017-09-12T15:19:36.960Z,200
2017-09-12T15:20:46.913Z,205
2017-09-12T15:21:56.553Z,225
2017-09-12T15:23:07.174Z,295
2017-09-12T15:24:17.447Z,400
2017-09-12T15:25:27.726Z,485
2017-09-12T15:26:37.678Z,525
2017-09-12T15:27:47.952Z,550
2017-09-12T15:28:58.593Z,560
2017-09-12T15:30:08.850Z,550
2017-09-12T15:31:19.172Z,545
2017-09-12T15:32:29.433Z,550
2017-09-12T15:33:39.695Z,555
2017-09-12T15:34:50.268Z,560
2017-09-12T15:36:00.522Z,555
2017-09-12T15:37:10.482Z,560
2017-09-12T15:38:20.741Z,585
2017-09-12T15:39:31.001Z,615
2017-09-12T15:40:41.301Z,1625
2017-09-12T15:41:51.255Z,1610
2017-09-12T15:43:01.202Z,1625
2017-09-12T15:44:11.475Z,510
2017-09-12T15:45:21.738Z,405
2017-09-12T15:46:32.314Z,335
2017-09-12T15:47:42.257Z,300
2017-09-12T15:48:52.531Z,285
2017-09-12T15:50:02.487Z,270
2017-09-12T15:51:12.429Z,265
2017-09-12T15:52:22.694Z,280
2017-09-12T15:53:32.947Z,305
2017-09-12T15:54:43.315Z,965
2017-09-12T15:55:53.819Z,675
2017-09-12T15:57:04.083Z,425
2017-09-12T15:58:14.562Z,495
2017-09-12T15:59:24.834Z,1300
2017-09-12T16:00:35.093Z,830
2017-09-12T16:01:45.350Z,460
2017-09-12T16:02:55.335Z,1195
2017-09-12T16:04:05.750Z,1185
2017-09-12T16:05:16.010Z,1065
2017-09-12T16:06:26.278Z,1050
2017-09-12T16:07:36.536Z,1060
2017-09-12T16:08:46.796Z,1030
2017-09-12T16:09:56.936Z,930
2017-09-12T16:11:07.198Z,465
2017-09-12T16:12:17.462Z,320
2017-09-12T16:13:27.757Z,655
2017-09-12T16:14:38.025Z,750
2017-09-12T16:15:48.120Z,860
2017-09-12T16:16:58.383Z,415
2017-09-12T16:18:08.339Z,430
2017-09-12T16:19:18.601Z,780
2017-09-12T16:20:28.873Z,310